createdAt,value
2019-05-13T00:01:54.033Z,7.00
2019-05-13T00:04:24.258Z,6.63
2019-05-13T00:06:57.018Z,8.03
2019-05-13T00:09:24.519Z,7.93
2019-05-13T00:11:54.168Z,8.83
2019-05-13T00:14:23.943Z,7.00
2019-05-13T00:16:53.656Z,7.60
2019-05-13T00:19:23.351Z,7.77
2019-05-13T00:21:54.480Z,8.53
2019-05-13T00:24:24.276Z,8.77
2019-05-13T00:26:53.665Z,7.30
2019-05-13T00:29:23.498Z,8.77
2019-05-13T00:31:54.055Z,9.80
2019-05-13T00:34:24.378Z,8.00
2019-05-13T00:37:07.272Z,7.53
2019-05-13T00:39:24.728Z,7.50
2019-05-13T00:41:54.057Z,8.83
2019-05-13T00:47:19.031Z,10.07
2019-05-13T00:49:48.017Z,10.23
2019-05-13T00:52:17.186Z,10.60
2019-05-13T00:54:46.194Z,10.60
2019-05-13T00:57:16.137Z,11.80
2019-05-13T00:59:45.274Z,10.37
2019-05-13T01:02:14.257Z,10.03
2019-05-13T01:04:44.192Z,10.50
2019-05-13T01:07:25.100Z,9.87
2019-05-13T01:09:44.373Z,9.10
2019-05-13T01:12:13.709Z,10.77
2019-05-13T01:14:43.283Z,10.13
2019-05-13T01:17:14.145Z,11.80
2019-05-13T01:19:43.400Z,12.30
2019-05-13T01:22:13.467Z,12.37
2019-05-13T01:24:44.168Z,11.90
2019-05-13T01:27:14.112Z,11.67
2019-05-13T01:29:43.595Z,11.07
2019-05-13T01:32:14.478Z,10.90
2019-05-13T01:34:44.343Z,11.30
2019-05-13T01:37:13.790Z,10.57
2019-05-13T01:39:44.041Z,11.30
2019-05-13T01:42:13.772Z,10.50
2019-05-13T01:44:43.781Z,8.70
2019-05-13T01:47:13.459Z,10.10
2019-05-13T01:49:43.948Z,11.40
2019-05-13T01:52:13.798Z,11.10
2019-05-13T01:54:44.285Z,11.43
2019-05-13T01:57:14.367Z,11.67
2019-05-13T01:59:43.633Z,10.40
2019-05-13T02:02:13.774Z,11.40
2019-05-13T02:04:43.909Z,10.80
2019-05-13T02:07:14.380Z,11.43
2019-05-13T02:09:44.401Z,10.27
2019-05-13T02:12:13.546Z,11.70
2019-05-13T02:14:44.413Z,10.80
2019-05-13T02:17:14.618Z,11.03
2019-05-13T02:19:44.348Z,11.10
2019-05-13T02:22:14.707Z,11.60
2019-05-13T02:24:44.679Z,12.20
2019-05-13T02:27:14.280Z,10.20
2019-05-13T02:29:43.692Z,10.93
2019-05-13T02:32:13.997Z,12.30
2019-05-13T02:34:44.079Z,11.23
2019-05-13T02:37:13.263Z,11.03
2019-05-13T02:39:42.885Z,11.50
2019-05-13T02:42:13.212Z,11.00
2019-05-13T02:44:43.692Z,11.50
2019-05-13T02:47:13.282Z,10.63
2019-05-13T02:49:43.141Z,10.60
2019-05-13T02:52:13.248Z,10.33
2019-05-13T02:54:42.885Z,9.50
2019-05-13T02:57:12.405Z,10.97
2019-05-13T02:59:42.421Z,9.40
2019-05-13T03:02:12.478Z,11.13
2019-05-13T03:04:43.467Z,8.90
2019-05-13T03:07:12.778Z,10.10
2019-05-13T03:09:42.372Z,11.27
2019-05-13T03:12:13.043Z,9.97
2019-05-13T03:14:47.988Z,9.27
2019-05-13T03:17:32.867Z,10.37
2019-05-13T03:20:04.013Z,10.80
2019-05-13T03:22:32.806Z,11.80
2019-05-13T03:25:03.319Z,11.50
2019-05-13T03:27:33.657Z,10.13
2019-05-13T03:30:04.482Z,11.97
2019-05-13T03:32:42.155Z,11.40
2019-05-13T03:35:07.618Z,11.47
2019-05-13T03:37:36.414Z,10.80
2019-05-13T03:40:05.480Z,11.17
2019-05-13T03:42:35.165Z,11.33
2019-05-13T03:45:04.227Z,10.07
2019-05-13T03:47:34.668Z,10.97
2019-05-13T03:50:04.133Z,10.97
2019-05-13T03:52:33.970Z,11.23
2019-05-13T03:55:03.597Z,10.90
2019-05-13T03:57:33.720Z,10.80
2019-05-13T04:00:03.781Z,11.20
2019-05-13T04:02:33.271Z,10.03
2019-05-13T04:05:04.181Z,13.40
2019-05-13T04:07:33.979Z,11.30
2019-05-13T04:10:03.814Z,11.33
2019-05-13T04:12:33.671Z,11.77
2019-05-13T04:15:03.739Z,10.57
2019-05-13T04:17:33.233Z,9.93
2019-05-13T04:20:03.016Z,11.40
2019-05-13T04:22:33.311Z,12.50
2019-05-13T04:25:02.738Z,11.00
2019-05-13T04:27:32.823Z,9.60
2019-05-13T04:30:03.438Z,10.50
2019-05-13T04:32:33.687Z,11.20
2019-05-13T04:35:04.107Z,12.03
2019-05-13T04:37:33.560Z,10.53
2019-05-13T04:40:03.942Z,11.07
2019-05-13T04:42:33.515Z,10.43
2019-05-13T04:45:03.468Z,10.83
2019-05-13T04:47:33.329Z,14.57
2019-05-13T04:50:03.415Z,12.37
2019-05-13T04:52:33.322Z,11.73
2019-05-13T04:55:03.392Z,13.23
2019-05-13T04:57:33.280Z,12.93
2019-05-13T05:00:04.050Z,10.10
2019-05-13T05:02:48.490Z,10.87
2019-05-13T05:05:15.368Z,11.80
2019-05-13T05:08:11.963Z,12.03
2019-05-13T05:11:02.621Z,11.90
2019-05-13T05:13:54.217Z,11.73
2019-05-13T05:16:32.540Z,10.77
2019-05-13T05:19:23.531Z,11.17
2019-05-13T05:21:55.641Z,10.50
2019-05-13T05:24:43.826Z,10.20
2019-05-13T05:27:31.655Z,10.87
2019-05-13T05:30:18.450Z,10.63
2019-05-13T05:33:04.032Z,12.07
2019-05-13T05:35:47.056Z,11.93
2019-05-13T05:38:25.879Z,9.63
2019-05-13T05:40:54.083Z,11.37
2019-05-13T05:43:23.396Z,10.20
2019-05-13T05:45:53.535Z,9.30
2019-05-13T05:48:23.134Z,6.87
2019-05-13T05:50:52.865Z,7.87
2019-05-13T05:53:23.901Z,9.97
2019-05-13T05:55:54.948Z,7.70
2019-05-13T05:58:24.464Z,7.90
2019-05-13T06:00:55.768Z,6.33
2019-05-13T06:03:24.930Z,6.93
2019-05-13T06:05:55.318Z,5.30
2019-05-13T06:08:24.924Z,6.47
2019-05-13T06:10:55.037Z,6.23
2019-05-13T06:13:24.398Z,5.23
2019-05-13T06:15:54.954Z,5.53
2019-05-13T06:18:24.550Z,5.10
2019-05-13T06:20:55.801Z,4.57
2019-05-13T06:23:26.561Z,5.33
2019-05-13T06:25:58.175Z,5.60
2019-05-13T06:28:28.802Z,5.17
2019-05-13T06:30:58.461Z,5.60
2019-05-13T06:33:28.087Z,5.13
2019-05-13T06:35:57.538Z,4.13
2019-05-13T06:38:27.475Z,6.73
2019-05-13T06:41:03.392Z,3.93
2019-05-13T06:43:27.900Z,5.40
2019-05-13T06:45:57.070Z,4.60
2019-05-13T06:48:26.095Z,4.60
2019-05-13T06:50:55.150Z,5.00
2019-05-13T06:53:24.277Z,5.20
2019-05-13T06:55:53.313Z,4.03
2019-05-13T06:58:23.039Z,4.80
2019-05-13T07:00:52.123Z,5.03
2019-05-13T07:03:22.119Z,4.53
2019-05-13T07:05:52.605Z,4.10
2019-05-13T07:08:22.345Z,4.43
2019-05-13T07:10:51.675Z,5.10
2019-05-13T07:13:21.773Z,4.20
2019-05-13T07:15:52.151Z,3.90
2019-05-13T07:18:22.104Z,5.17
2019-05-13T07:20:53.109Z,7.27
2019-05-13T07:23:22.743Z,4.87
2019-05-13T07:25:52.716Z,5.90
2019-05-13T07:28:22.496Z,5.00
2019-05-13T07:30:51.708Z,4.90
2019-05-13T07:33:21.468Z,5.23
2019-05-13T07:35:58.031Z,4.17
2019-05-13T07:38:22.749Z,4.53
2019-05-13T07:40:55.956Z,4.20
2019-05-13T07:43:25.170Z,4.77
2019-05-13T07:45:54.299Z,4.20
2019-05-13T07:48:27.594Z,4.73
2019-05-13T07:51:00.576Z,4.50
2019-05-13T07:53:27.910Z,4.10
2019-05-13T07:55:56.999Z,4.47
2019-05-13T07:58:26.053Z,3.40
2019-05-13T08:00:55.552Z,3.60
2019-05-13T08:03:25.283Z,3.70
2019-05-13T08:05:54.601Z,3.90
2019-05-13T08:08:23.968Z,4.07
2019-05-13T08:10:53.143Z,3.63
2019-05-13T08:13:22.707Z,3.87
2019-05-13T08:15:54.627Z,4.03
2019-05-13T08:18:22.952Z,4.03
2019-05-13T08:20:52.581Z,2.57
2019-05-13T08:23:22.499Z,3.47
2019-05-13T08:25:52.785Z,2.93
2019-05-13T08:28:22.543Z,4.00
2019-05-13T08:30:52.109Z,2.83
2019-05-13T08:33:22.629Z,3.00
2019-05-13T08:35:53.911Z,2.73
2019-05-13T08:38:23.355Z,2.87
2019-05-13T08:40:53.548Z,2.70
2019-05-13T08:43:23.097Z,2.70
2019-05-13T08:45:55.497Z,3.10
2019-05-13T08:48:23.347Z,3.13
2019-05-13T08:50:53.227Z,3.40
2019-05-13T08:53:22.824Z,3.63
2019-05-13T08:55:51.976Z,3.17
2019-05-13T08:58:21.832Z,4.03
2019-05-13T09:00:53.117Z,2.90
2019-05-13T09:03:23.637Z,2.77
2019-05-13T09:05:53.961Z,2.73
2019-05-13T09:08:23.613Z,2.07
2019-05-13T09:10:56.541Z,2.73
2019-05-13T09:13:24.384Z,2.80
2019-05-13T09:15:54.301Z,2.70
2019-05-13T09:18:23.726Z,3.13
2019-05-13T09:20:52.773Z,2.80
2019-05-13T09:23:22.526Z,3.00
2019-05-13T09:25:52.346Z,3.13
2019-05-13T09:28:22.134Z,1.90
2019-05-13T09:30:53.210Z,1.73
2019-05-13T09:33:23.170Z,2.67
2019-05-13T09:35:53.729Z,2.70
2019-05-13T09:38:23.087Z,3.20
2019-05-13T09:40:53.228Z,2.90
2019-05-13T09:43:22.549Z,2.93
2019-05-13T09:45:52.443Z,2.70
2019-05-13T09:48:22.873Z,4.23
2019-05-13T09:50:52.699Z,3.57
2019-05-13T09:53:22.713Z,3.30
2019-05-13T09:55:52.369Z,2.73
2019-05-13T09:58:22.802Z,2.93
2019-05-13T10:00:52.824Z,2.57
2019-05-13T10:03:26.636Z,3.30
2019-05-13T10:05:53.001Z,2.80
2019-05-13T10:08:22.266Z,3.87
2019-05-13T10:10:52.798Z,2.60
2019-05-13T10:13:23.661Z,2.83
2019-05-13T10:15:53.062Z,2.17
2019-05-13T10:18:22.574Z,3.43
2019-05-13T10:20:57.997Z,2.83
2019-05-13T10:23:24.870Z,1.87
2019-05-13T10:25:55.632Z,2.77
2019-05-13T10:28:25.562Z,2.60
2019-05-13T10:30:55.101Z,2.33
2019-05-13T10:33:25.363Z,2.63
2019-05-13T10:35:54.754Z,2.77
2019-05-13T10:38:27.901Z,3.50
2019-05-13T10:40:57.095Z,2.93
2019-05-13T10:43:31.375Z,2.50
2019-05-13T10:45:57.653Z,2.40
2019-05-13T10:48:26.774Z,2.73
2019-05-13T10:50:56.418Z,3.07
2019-05-13T10:53:25.655Z,2.60
2019-05-13T10:55:55.087Z,2.80
2019-05-13T10:58:24.557Z,2.23
2019-05-13T11:00:54.379Z,2.63
2019-05-13T11:03:24.438Z,2.53
2019-05-13T11:05:54.096Z,3.10
2019-05-13T11:08:23.167Z,2.90
2019-05-13T11:10:53.028Z,2.40
2019-05-13T11:13:24.330Z,3.47
2019-05-13T11:15:58.085Z,3.20
2019-05-13T11:18:25.033Z,2.13
2019-05-13T11:20:54.096Z,3.10
2019-05-13T11:23:23.612Z,3.60
2019-05-13T11:25:53.403Z,2.57
2019-05-13T11:28:22.558Z,2.93
2019-05-13T11:30:52.221Z,2.50
2019-05-13T11:33:22.458Z,2.63
2019-05-13T11:35:52.516Z,2.40
2019-05-13T11:38:22.325Z,2.67
2019-05-13T11:40:52.610Z,3.67
2019-05-13T11:43:27.567Z,2.40
2019-05-13T11:45:53.003Z,4.10
2019-05-13T11:48:23.463Z,1.93
2019-05-13T11:50:54.234Z,2.53
2019-05-13T11:53:32.767Z,2.17
2019-05-13T11:55:55.141Z,1.90
2019-05-13T11:58:24.355Z,2.23
2019-05-13T12:00:55.502Z,1.87
2019-05-13T12:03:24.719Z,2.70
2019-05-13T12:05:55.016Z,1.87
2019-05-13T12:08:24.618Z,2.60
2019-05-13T12:10:53.750Z,2.50
2019-05-13T12:13:24.419Z,0.67
2019-05-13T12:15:54.742Z,1.20
2019-05-13T12:18:24.149Z,0.53
2019-05-13T12:20:54.234Z,0.40
2019-05-13T12:23:23.478Z,0.50
2019-05-13T12:25:53.205Z,1.23
2019-05-13T12:28:22.836Z,0.40
2019-05-13T12:30:54.122Z,0.40
2019-05-13T12:33:23.597Z,3.27
2019-05-13T12:35:53.776Z,1.77
2019-05-13T12:38:23.088Z,1.93
2019-05-13T12:40:53.283Z,3.37
2019-05-13T18:44:35.086Z,1.90
2019-05-13T18:47:04.554Z,2.40
2019-05-13T18:49:33.560Z,2.20
2019-05-13T18:52:02.530Z,2.17
2019-05-13T18:54:31.825Z,1.90
2019-05-13T18:57:01.729Z,2.00
2019-05-13T18:59:32.145Z,2.30
2019-05-13T19:02:01.671Z,2.03
2019-05-13T19:04:31.388Z,2.27
2019-05-13T19:07:02.414Z,2.33
2019-05-13T19:09:31.230Z,2.00
2019-05-13T19:12:01.398Z,3.00
2019-05-13T19:14:31.836Z,1.90
2019-05-13T19:17:02.359Z,2.20
2019-05-13T19:19:31.814Z,2.47
2019-05-13T19:22:02.153Z,2.80
2019-05-13T19:24:31.400Z,2.67
2019-05-13T19:27:01.743Z,2.67
2019-05-13T19:29:32.011Z,3.57
2019-05-13T19:32:01.745Z,3.37
2019-05-13T19:34:32.303Z,2.60
2019-05-13T19:37:02.363Z,2.03
2019-05-13T19:39:31.863Z,2.47
2019-05-13T19:42:01.197Z,3.37
2019-05-13T19:44:31.518Z,2.47
2019-05-13T19:47:01.993Z,1.87
2019-05-13T19:49:36.649Z,2.00
2019-05-13T19:52:02.191Z,1.60
2019-05-13T19:54:31.599Z,2.77
2019-05-13T19:57:01.515Z,2.60
2019-05-13T19:59:32.299Z,2.60
2019-05-13T20:02:01.618Z,2.00
2019-05-13T20:04:31.330Z,2.40
2019-05-13T20:07:00.806Z,2.33
2019-05-13T20:09:31.999Z,2.30
2019-05-13T20:12:02.031Z,2.20
2019-05-13T20:14:31.173Z,3.10
2019-05-13T20:17:01.646Z,2.30
2019-05-13T20:19:45.997Z,2.67
2019-05-13T20:22:02.380Z,2.70
2019-05-13T20:24:31.517Z,2.37
2019-05-13T20:27:01.569Z,3.97
2019-05-13T20:29:33.087Z,3.13
2019-05-13T20:32:03.436Z,2.47
2019-05-13T20:34:32.453Z,2.47
2019-05-13T20:37:02.231Z,8.20
2019-05-13T20:39:32.190Z,4.57
2019-05-13T20:42:01.982Z,2.80
2019-05-13T20:44:31.430Z,2.40
2019-05-13T20:47:01.610Z,2.20
2019-05-13T20:49:31.341Z,2.37
2019-05-13T20:52:00.385Z,2.70
2019-05-13T20:54:31.447Z,1.90
2019-05-13T20:57:01.997Z,2.47
2019-05-13T20:59:32.176Z,2.20
2019-05-13T21:02:02.461Z,2.27
2019-05-13T21:04:32.376Z,2.13
2019-05-13T21:07:02.100Z,1.93
2019-05-13T21:09:31.641Z,2.13
2019-05-13T21:12:04.001Z,2.23
2019-05-13T21:14:33.201Z,1.77
2019-05-13T21:17:02.479Z,2.00
2019-05-13T21:19:39.242Z,2.10
2019-05-13T21:22:02.657Z,2.53
2019-05-13T21:24:32.056Z,2.27
2019-05-13T21:27:02.266Z,1.83
2019-05-13T21:29:32.292Z,1.60
2019-05-13T21:32:02.118Z,2.33
2019-05-13T21:34:32.906Z,2.30
2019-05-13T21:37:02.453Z,2.40
2019-05-13T21:39:32.665Z,1.90
2019-05-13T21:42:02.458Z,2.17
2019-05-13T21:44:32.676Z,2.43
2019-05-13T21:47:02.301Z,1.30
2019-05-13T21:49:31.986Z,2.00
2019-05-13T21:52:01.107Z,1.83
2019-05-13T21:54:33.213Z,1.90
2019-05-13T21:57:02.218Z,1.83
2019-05-13T21:59:32.077Z,1.70
2019-05-13T22:02:01.675Z,2.10
2019-05-13T22:04:31.284Z,2.50
2019-05-13T22:07:01.478Z,2.10
2019-05-13T22:09:31.838Z,3.07
2019-05-13T22:12:01.818Z,2.20
2019-05-13T22:14:31.975Z,1.80
2019-05-13T22:17:01.881Z,1.60
2019-05-13T22:19:31.602Z,2.07
2019-05-13T22:22:02.230Z,2.00
2019-05-13T22:24:31.523Z,2.00
2019-05-13T22:27:01.884Z,1.80
2019-05-13T22:29:32.148Z,2.10
2019-05-13T22:32:02.333Z,1.90
2019-05-13T22:34:32.194Z,1.70
2019-05-13T22:37:02.491Z,2.30
2019-05-13T22:39:34.620Z,2.17
2019-05-13T22:42:02.948Z,1.53
2019-05-13T22:44:32.552Z,1.93
2019-05-13T22:47:02.495Z,2.50
2019-05-13T22:49:31.685Z,2.10
2019-05-13T22:52:01.174Z,2.50
2019-05-13T22:54:31.890Z,1.77
2019-05-13T22:57:00.804Z,2.20
2019-05-13T22:59:32.186Z,1.90
2019-05-13T23:02:01.235Z,2.13
2019-05-13T23:04:31.430Z,2.57
2019-05-13T23:07:01.279Z,1.80
2019-05-13T23:09:32.142Z,1.57
2019-05-13T23:12:01.723Z,1.93
2019-05-13T23:14:31.135Z,1.93
2019-05-13T23:17:02.123Z,2.90
2019-05-13T23:19:32.314Z,2.20
2019-05-13T23:22:01.686Z,1.80
2019-05-13T23:24:31.199Z,2.37
2019-05-13T23:27:02.177Z,1.80
2019-05-13T23:29:32.003Z,1.77
2019-05-13T23:32:01.429Z,2.73
2019-05-13T23:34:31.750Z,1.97
2019-05-13T23:37:01.020Z,2.53
2019-05-13T23:39:32.115Z,2.60
2019-05-13T23:42:01.494Z,2.50
2019-05-13T23:44:32.222Z,2.27
2019-05-13T23:47:02.792Z,1.93
2019-05-13T23:49:31.854Z,2.07
2019-05-13T23:52:02.518Z,3.33
2019-05-13T23:54:31.975Z,2.43
2019-05-13T23:57:01.339Z,2.30
2019-05-13T23:59:31.318Z,2.40
